createdAt,value
2023-01-28T00:01:57.211Z,4.80
2023-01-28T00:04:25.319Z,4.03
2023-01-28T00:06:54.027Z,5.88
2023-01-28T00:09:20.974Z,5.35
2023-01-28T00:11:47.784Z,4.95
2023-01-28T00:14:14.771Z,4.93
2023-01-28T00:16:43.144Z,6.32
2023-01-28T00:19:09.821Z,5.47
2023-01-28T00:21:36.693Z,3.65
2023-01-28T00:24:03.603Z,5.53
2023-01-28T00:26:30.292Z,9.77
2023-01-28T00:28:56.896Z,4.15
2023-01-28T00:31:31.221Z,4.82
2023-01-28T00:33:58.209Z,4.63
2023-01-28T00:36:26.759Z,6.60
2023-01-28T00:38:55.996Z,5.65
2023-01-28T00:41:24.791Z,4.32
2023-01-28T00:43:52.075Z,6.10
2023-01-28T00:46:22.976Z,4.18
2023-01-28T00:48:49.663Z,4.60
2023-01-28T00:51:20.177Z,5.88
2023-01-28T00:53:47.995Z,5.82
2023-01-28T00:56:17.848Z,4.07
2023-01-28T00:58:44.934Z,4.65
2023-01-28T01:01:18.771Z,8.18
2023-01-28T01:03:46.239Z,7.35
2023-01-28T01:06:15.191Z,4.28
2023-01-28T01:08:46.749Z,6.82
2023-01-28T01:11:13.618Z,6.03
2023-01-28T01:13:40.433Z,5.65
2023-01-28T01:16:13.264Z,3.70
2023-01-28T01:18:42.225Z,3.55
2023-01-28T01:21:13.777Z,6.18
2023-01-28T01:23:40.954Z,8.32
2023-01-28T01:26:07.963Z,3.92
2023-01-28T01:28:34.764Z,6.75
2023-01-28T01:31:03.332Z,4.53
2023-01-28T01:33:30.878Z,5.68
2023-01-28T01:35:58.003Z,5.07
2023-01-28T01:38:25.735Z,8.82
2023-01-28T01:40:52.774Z,5.15
2023-01-28T01:43:24.019Z,5.00
2023-01-28T01:45:57.436Z,5.55
2023-01-28T01:48:34.371Z,6.70
2023-01-28T01:51:23.408Z,8.18
2023-01-28T01:53:54.821Z,6.40
2023-01-28T01:56:26.941Z,5.85
2023-01-28T01:58:56.279Z,13.85
2023-01-28T02:01:26.291Z,6.13
2023-01-28T02:04:09.045Z,4.93
2023-01-28T02:06:38.055Z,7.43
2023-01-28T02:09:38.558Z,5.43
2023-01-28T02:12:18.921Z,6.97
2023-01-28T02:15:21.713Z,10.52
2023-01-28T02:17:50.388Z,5.30
2023-01-28T02:20:25.837Z,7.40
2023-01-28T02:23:32.100Z,7.55
2023-01-28T02:25:58.640Z,12.00
2023-01-28T02:28:39.651Z,7.22
2023-01-28T02:31:21.555Z,6.97
2023-01-28T02:33:57.358Z,11.13
2023-01-28T02:36:34.922Z,10.15
2023-01-28T02:39:07.937Z,6.20
2023-01-28T02:41:44.269Z,7.97
2023-01-28T02:44:11.727Z,11.82
2023-01-28T02:46:56.948Z,8.80
2023-01-28T02:49:39.521Z,10.25
2023-01-28T02:52:16.197Z,7.63
2023-01-28T02:54:57.828Z,11.55
2023-01-28T02:57:48.850Z,7.13
2023-01-28T03:00:44.729Z,8.45
2023-01-28T03:03:24.933Z,8.93
2023-01-28T03:06:08.711Z,8.07
2023-01-28T03:09:04.138Z,4.78
2023-01-28T03:11:53.753Z,6.90
2023-01-28T03:14:40.530Z,11.43
2023-01-28T03:17:34.424Z,9.65
2023-01-28T03:20:20.086Z,6.70
2023-01-28T03:23:09.862Z,8.57
2023-01-28T03:25:57.628Z,7.60
2023-01-28T03:28:44.101Z,7.28
2023-01-28T03:31:35.843Z,7.93
2023-01-28T03:34:23.760Z,7.15
2023-01-28T03:36:51.660Z,7.93
2023-01-28T03:39:35.589Z,9.35
2023-01-28T03:44:48.675Z,8.57
2023-01-28T03:47:15.654Z,9.07
2023-01-28T03:49:49.364Z,9.38
2023-01-28T03:52:37.186Z,5.93
2023-01-28T03:55:13.603Z,11.82
2023-01-28T03:57:40.674Z,5.72
2023-01-28T04:00:08.247Z,18.20
2023-01-28T04:02:35.536Z,6.60
2023-01-28T04:05:07.012Z,10.85
2023-01-28T04:07:33.864Z,9.07
2023-01-28T04:10:02.073Z,5.88
2023-01-28T04:12:36.794Z,8.38
2023-01-28T04:15:15.695Z,5.70
2023-01-28T04:17:46.782Z,11.48
2023-01-28T04:20:13.983Z,9.07
2023-01-28T04:22:40.883Z,9.32
2023-01-28T04:25:08.629Z,10.07
2023-01-28T04:27:36.750Z,9.07
2023-01-28T04:30:04.043Z,7.88
2023-01-28T04:32:30.752Z,10.88
2023-01-28T04:34:57.382Z,6.80
2023-01-28T04:37:24.172Z,23.05
2023-01-28T04:39:50.692Z,11.05
2023-01-28T04:42:17.356Z,8.30
2023-01-28T04:44:43.959Z,9.93
2023-01-28T04:47:10.746Z,8.38
2023-01-28T04:49:37.323Z,6.00
2023-01-28T04:52:04.099Z,8.15
2023-01-28T04:54:34.143Z,5.63
2023-01-28T04:57:04.278Z,13.07
2023-01-28T04:59:30.783Z,7.90
2023-01-28T05:01:57.392Z,10.35
2023-01-28T05:04:24.108Z,7.70
2023-01-28T05:06:50.768Z,8.88
2023-01-28T05:09:17.541Z,9.32
2023-01-28T05:11:44.118Z,6.15
2023-01-28T05:14:10.779Z,5.97
2023-01-28T05:16:37.854Z,8.65
2023-01-28T05:19:06.594Z,8.98
2023-01-28T05:21:33.240Z,9.02
2023-01-28T05:23:59.909Z,8.18
2023-01-28T05:26:26.469Z,5.25
2023-01-28T05:28:53.111Z,7.68
2023-01-28T05:31:20.561Z,6.65
2023-01-28T05:33:53.822Z,6.13
2023-01-28T05:36:21.665Z,5.57
2023-01-28T05:38:48.333Z,6.90
2023-01-28T05:41:15.017Z,8.45
2023-01-28T05:43:41.593Z,6.00
2023-01-28T05:46:08.828Z,5.20
2023-01-28T05:48:35.430Z,6.38
2023-01-28T05:51:01.997Z,5.13
2023-01-28T05:53:28.557Z,8.23
2023-01-28T05:55:55.268Z,7.13
2023-01-28T05:58:22.317Z,7.57
2023-01-28T06:00:58.519Z,5.32
2023-01-28T06:03:25.905Z,7.03
2023-01-28T06:05:52.382Z,5.18
2023-01-28T06:08:19.157Z,5.93
2023-01-28T06:10:46.610Z,6.28
2023-01-28T06:13:15.502Z,7.43
2023-01-28T06:15:42.376Z,4.18
2023-01-28T06:18:09.081Z,6.97
2023-01-28T06:20:35.765Z,7.63
2023-01-28T06:23:02.497Z,6.93
2023-01-28T06:25:29.698Z,4.07
2023-01-28T06:28:05.411Z,4.68
2023-01-28T06:30:32.260Z,7.68
2023-01-28T06:32:59.212Z,5.97
2023-01-28T06:35:26.032Z,3.90
2023-01-28T06:37:53.294Z,6.35
2023-01-28T06:40:21.066Z,3.13
2023-01-28T06:42:47.696Z,7.43
2023-01-28T06:45:14.292Z,5.00
2023-01-28T06:47:41.142Z,3.90
2023-01-28T06:50:08.126Z,5.72
2023-01-28T06:52:34.642Z,4.05
2023-01-28T06:55:02.236Z,4.18
2023-01-28T06:57:29.517Z,4.47
2023-01-28T06:59:56.264Z,5.13
2023-01-28T07:02:22.890Z,4.40
2023-01-28T07:04:49.669Z,4.70
2023-01-28T07:07:16.399Z,4.80
2023-01-28T07:09:42.824Z,3.78
2023-01-28T07:12:09.508Z,5.15
2023-01-28T07:14:36.201Z,5.43
2023-01-28T07:17:02.851Z,4.25
2023-01-28T07:19:30.473Z,5.18
2023-01-28T07:22:03.716Z,5.80
2023-01-28T07:24:31.729Z,4.45
2023-01-28T07:26:59.083Z,4.45
2023-01-28T07:29:25.611Z,7.50
2023-01-28T07:31:52.299Z,3.55
2023-01-28T07:34:18.801Z,10.02
2023-01-28T07:36:45.490Z,6.72
2023-01-28T07:39:11.988Z,7.85
2023-01-28T07:41:38.772Z,4.82
2023-01-28T07:44:05.618Z,5.18
2023-01-28T07:46:34.335Z,4.13
2023-01-28T07:49:01.393Z,7.10
2023-01-28T07:51:28.224Z,5.45
2023-01-28T07:53:55.033Z,5.38
2023-01-28T07:56:21.707Z,4.30
2023-01-28T07:58:50.686Z,6.25
2023-01-28T08:01:19.954Z,5.65
2023-01-28T08:03:46.648Z,4.72
2023-01-28T08:06:13.481Z,4.72
2023-01-28T08:08:40.539Z,5.57
2023-01-28T08:11:08.994Z,5.65
2023-01-28T08:13:35.755Z,5.85
2023-01-28T08:16:02.883Z,5.63
2023-01-28T08:18:29.459Z,7.97
2023-01-28T08:20:57.346Z,5.90
2023-01-28T08:23:24.600Z,7.90
2023-01-28T08:25:51.238Z,9.52
2023-01-28T08:28:26.247Z,9.73
2023-01-28T08:30:53.381Z,7.10
2023-01-28T08:33:20.414Z,8.30
2023-01-28T08:35:47.180Z,5.85
2023-01-28T08:38:15.525Z,6.90
2023-01-28T08:40:42.274Z,7.13
2023-01-28T08:43:09.635Z,5.97
2023-01-28T08:45:36.088Z,6.97
2023-01-28T08:48:05.704Z,6.53
2023-01-28T08:50:35.174Z,6.47
2023-01-28T08:53:04.895Z,5.80
2023-01-28T08:55:32.209Z,7.18
2023-01-28T08:58:03.035Z,5.88
2023-01-28T09:00:29.868Z,10.63
2023-01-28T09:02:56.631Z,9.18
2023-01-28T09:05:23.432Z,6.88
2023-01-28T09:07:51.087Z,8.63
2023-01-28T09:10:24.481Z,7.90
2023-01-28T09:12:51.042Z,7.53
2023-01-28T09:15:17.979Z,6.28
2023-01-28T09:17:44.712Z,8.20
2023-01-28T09:20:13.111Z,5.28
2023-01-28T09:22:40.388Z,8.32
2023-01-28T09:25:07.866Z,7.68
2023-01-28T09:27:34.452Z,6.90
2023-01-28T09:30:01.061Z,12.38
2023-01-28T09:32:27.604Z,6.90
2023-01-28T09:34:54.135Z,5.88
2023-01-28T09:37:21.859Z,6.88
2023-01-28T09:39:48.366Z,7.57
2023-01-28T09:42:17.944Z,2.72
2023-01-28T09:45:09.478Z,4.95
2023-01-28T09:47:43.220Z,4.03
2023-01-28T09:50:17.949Z,9.68
2023-01-28T09:52:45.685Z,7.28
2023-01-28T09:55:30.377Z,7.72
2023-01-28T09:57:57.552Z,6.82
2023-01-28T10:00:30.202Z,6.78
2023-01-28T10:03:24.680Z,6.33
2023-01-28T10:06:14.549Z,8.20
2023-01-28T10:09:14.462Z,4.95
2023-01-28T10:12:08.891Z,6.18
2023-01-28T10:15:09.644Z,7.90
2023-01-28T10:17:46.738Z,7.10
2023-01-28T10:20:14.291Z,12.45
2023-01-28T10:23:16.171Z,5.45
2023-01-28T10:25:48.304Z,6.40
2023-01-28T10:28:43.786Z,7.40
2023-01-28T10:31:14.529Z,6.57
2023-01-28T10:33:41.083Z,6.35
2023-01-28T10:36:10.005Z,10.98
2023-01-28T10:38:36.647Z,8.82
2023-01-28T10:41:06.773Z,7.32
2023-01-28T10:43:45.652Z,7.25
2023-01-28T10:46:16.827Z,7.47
2023-01-28T10:48:48.819Z,5.93
2023-01-28T10:51:15.540Z,8.18
2023-01-28T10:53:46.353Z,11.15
2023-01-28T10:56:26.574Z,9.23
2023-01-28T10:59:18.127Z,12.95
2023-01-28T11:01:53.690Z,7.80
2023-01-28T11:04:26.587Z,10.23
2023-01-28T11:07:01.797Z,8.75
2023-01-28T11:09:35.762Z,9.60
2023-01-28T11:12:22.257Z,9.93
2023-01-28T11:14:55.493Z,7.97
2023-01-28T11:17:27.418Z,7.45
2023-01-28T11:19:56.373Z,9.90
2023-01-28T11:22:46.650Z,9.98
2023-01-28T11:25:22.263Z,10.30
2023-01-28T11:27:51.799Z,11.45
2023-01-28T11:30:21.870Z,8.70
2023-01-28T11:32:56.436Z,11.50
2023-01-28T11:35:31.007Z,7.80
2023-01-28T11:37:59.248Z,11.52
2023-01-28T11:40:27.307Z,10.15
2023-01-28T11:42:58.746Z,9.25
2023-01-28T11:45:44.031Z,11.68
2023-01-28T11:48:13.575Z,12.32
2023-01-28T11:50:48.774Z,9.32
2023-01-28T11:53:40.441Z,8.88
2023-01-28T11:56:30.276Z,8.95
2023-01-28T11:59:06.214Z,10.70
2023-01-28T12:02:07.131Z,7.60
2023-01-28T12:05:01.159Z,8.15
2023-01-28T12:07:28.061Z,6.95
2023-01-28T12:10:38.542Z,6.13
2023-01-28T12:13:16.156Z,9.20
2023-01-28T12:15:57.526Z,7.20
2023-01-28T12:18:43.479Z,9.98
2023-01-28T12:21:47.663Z,7.78
2023-01-28T12:24:47.547Z,11.48
2023-01-28T12:27:25.823Z,7.60
2023-01-28T12:30:24.328Z,5.93
2023-01-28T12:33:17.253Z,7.78
2023-01-28T12:36:16.339Z,9.73
2023-01-28T12:38:54.316Z,7.88
2023-01-28T12:41:28.757Z,8.20
2023-01-28T12:44:08.390Z,6.30
2023-01-28T12:46:55.831Z,6.07
2023-01-28T12:49:47.031Z,7.07
2023-01-28T12:52:17.072Z,7.57
2023-01-28T12:54:58.057Z,9.68
2023-01-28T12:57:30.040Z,8.75
2023-01-28T13:00:07.719Z,6.07
2023-01-28T13:02:42.769Z,5.68
2023-01-28T13:05:17.998Z,6.93
2023-01-28T13:07:53.693Z,6.88
2023-01-28T13:10:42.477Z,8.02
2023-01-28T13:13:18.790Z,9.25
2023-01-28T13:15:46.926Z,5.93
2023-01-28T13:18:31.280Z,13.27
2023-01-28T13:20:58.429Z,9.27
2023-01-28T13:23:37.608Z,12.30
2023-01-28T13:26:19.359Z,10.60
2023-01-28T13:28:47.325Z,14.55
2023-01-28T13:31:19.412Z,10.23
2023-01-28T13:34:02.219Z,11.38
2023-01-28T13:36:33.102Z,9.65
2023-01-28T13:39:08.733Z,11.57
2023-01-28T13:41:48.647Z,12.00
2023-01-28T13:44:33.556Z,6.78
2023-01-28T13:47:10.590Z,5.82
2023-01-28T13:49:57.730Z,6.32
2023-01-28T13:52:32.677Z,7.55
2023-01-28T13:55:04.177Z,5.13
2023-01-28T13:58:09.660Z,6.85
2023-01-28T14:00:52.177Z,5.43
2023-01-28T14:03:23.921Z,5.00
2023-01-28T14:06:28.067Z,6.20
2023-01-28T14:09:04.911Z,7.13
2023-01-28T14:11:59.670Z,6.40
2023-01-28T14:15:00.676Z,6.38
2023-01-28T14:17:48.896Z,5.50
2023-01-28T14:20:27.532Z,4.88
2023-01-28T14:23:04.734Z,6.75
2023-01-28T14:26:02.182Z,4.60
2023-01-28T14:28:57.211Z,5.30
2023-01-28T14:31:37.729Z,6.38
2023-01-28T14:34:31.519Z,5.00
2023-01-28T14:37:05.443Z,7.85
2023-01-28T14:39:53.685Z,5.85
2023-01-28T14:42:23.864Z,8.57
2023-01-28T14:45:06.817Z,6.10
2023-01-28T14:48:06.370Z,7.20
2023-01-28T14:51:05.696Z,8.60
2023-01-28T14:53:48.348Z,7.45
2023-01-28T14:56:42.007Z,6.53
2023-01-28T14:59:28.662Z,8.02
2023-01-28T15:01:58.472Z,8.20
2023-01-28T15:04:28.629Z,7.38
2023-01-28T15:06:56.401Z,13.73
2023-01-28T15:09:23.858Z,7.72
2023-01-28T15:11:56.318Z,8.30
2023-01-28T15:14:30.451Z,7.53
2023-01-28T15:16:58.091Z,9.70
2023-01-28T15:19:35.373Z,7.32
2023-01-28T15:22:05.709Z,6.45
2023-01-28T15:24:38.937Z,12.60
2023-01-28T15:27:05.657Z,9.77
2023-01-28T15:29:37.679Z,7.97
2023-01-28T15:32:05.516Z,7.22
2023-01-28T15:34:32.685Z,12.13
2023-01-28T15:37:00.806Z,9.15
2023-01-28T15:39:29.230Z,10.23
2023-01-28T15:42:03.388Z,10.05
2023-01-28T15:44:45.915Z,7.40
2023-01-28T15:47:33.331Z,7.85
2023-01-28T15:50:05.424Z,7.22
2023-01-28T15:52:43.415Z,9.88
2023-01-28T15:55:29.894Z,9.10
2023-01-28T15:57:56.679Z,8.68
2023-01-28T16:00:25.713Z,9.20
2023-01-28T16:02:56.561Z,9.35
2023-01-28T16:05:31.672Z,10.60
2023-01-28T16:07:59.156Z,8.27
2023-01-28T16:10:28.714Z,10.73
2023-01-28T16:13:27.292Z,10.23
2023-01-28T16:15:56.767Z,10.13
2023-01-28T16:18:40.811Z,9.38
2023-01-28T16:21:19.507Z,7.72
2023-01-28T16:23:53.287Z,10.23
2023-01-28T16:26:23.672Z,12.30
2023-01-28T16:28:51.363Z,11.15
2023-01-28T16:31:19.195Z,8.88
2023-01-28T16:33:46.532Z,10.48
2023-01-28T16:36:14.890Z,10.65
2023-01-28T16:38:42.888Z,13.07
2023-01-28T16:41:15.586Z,7.10
2023-01-28T16:43:42.325Z,4.07
2023-01-28T16:46:12.268Z,7.07
2023-01-28T16:48:39.232Z,6.30
2023-01-28T16:51:15.477Z,7.05
2023-01-28T16:53:43.758Z,8.75
2023-01-28T16:56:35.925Z,7.10
2023-01-28T16:59:05.259Z,10.43
2023-01-28T17:01:32.600Z,9.25
2023-01-28T17:04:00.061Z,6.35
2023-01-28T17:06:26.774Z,6.50
2023-01-28T17:08:53.521Z,9.50
2023-01-28T17:11:20.204Z,8.25
2023-01-28T17:13:46.838Z,9.70
2023-01-28T17:16:13.659Z,11.88
2023-01-28T17:18:40.989Z,12.05
2023-01-28T17:21:11.528Z,10.18
2023-01-28T17:23:42.763Z,12.00
2023-01-28T17:26:12.949Z,12.40
2023-01-28T17:28:41.071Z,16.90
2023-01-28T17:31:13.953Z,10.52
2023-01-28T17:33:41.886Z,12.23
2023-01-28T17:36:12.845Z,8.35
2023-01-28T17:38:39.735Z,30.52
2023-01-28T17:41:08.837Z,13.82
2023-01-28T17:43:35.654Z,9.50
2023-01-28T17:46:10.972Z,18.13
2023-01-28T17:48:37.878Z,36.55
2023-01-28T17:51:04.899Z,14.23
2023-01-28T17:53:31.558Z,10.90
2023-01-28T17:55:58.138Z,12.77
2023-01-28T17:58:24.782Z,17.98
2023-01-28T18:00:51.629Z,16.98
2023-01-28T18:03:18.358Z,12.73
2023-01-28T18:05:45.051Z,10.73
2023-01-28T18:08:12.302Z,16.85
2023-01-28T18:10:43.313Z,15.13
2023-01-28T18:13:10.072Z,31.75
2023-01-28T18:15:37.073Z,24.33
2023-01-28T18:18:03.998Z,14.98
2023-01-28T18:20:30.654Z,23.27
2023-01-28T18:22:57.481Z,35.53
2023-01-28T18:25:24.081Z,15.90
2023-01-28T18:27:52.565Z,13.38
2023-01-28T18:30:22.251Z,12.10
2023-01-28T18:32:48.983Z,14.38
2023-01-28T18:35:16.155Z,15.73
2023-01-28T18:37:43.449Z,16.77
2023-01-28T18:40:11.263Z,13.88
2023-01-28T18:42:38.100Z,13.93
2023-01-28T18:45:06.368Z,18.75
2023-01-28T18:47:33.779Z,18.48
2023-01-28T18:50:00.674Z,17.95
2023-01-28T18:52:27.860Z,23.00
2023-01-28T18:54:54.533Z,16.60
2023-01-28T18:57:21.816Z,16.38
2023-01-28T18:59:48.528Z,16.52
2023-01-28T19:02:16.511Z,15.90
2023-01-28T19:04:43.380Z,19.63
2023-01-28T19:07:11.760Z,15.52
2023-01-28T19:09:38.948Z,23.52
2023-01-28T19:12:06.257Z,20.70
2023-01-28T19:14:33.379Z,14.57
2023-01-28T19:17:00.271Z,18.20
2023-01-28T19:19:27.013Z,20.63
2023-01-28T19:21:54.000Z,19.20
2023-01-28T19:24:20.875Z,17.17
2023-01-28T19:26:47.558Z,14.93
2023-01-28T19:29:16.389Z,15.63
2023-01-28T19:31:44.604Z,16.13
2023-01-28T19:34:11.623Z,16.35
2023-01-28T19:36:38.833Z,18.30
2023-01-28T19:39:11.976Z,15.02
2023-01-28T19:41:39.546Z,27.75
2023-01-28T19:44:07.247Z,27.58
2023-01-28T19:46:36.336Z,19.27
2023-01-28T19:49:04.270Z,22.95
2023-01-28T19:51:40.018Z,9.75
2023-01-28T19:54:14.414Z,6.32
2023-01-28T19:56:41.255Z,8.10
2023-01-28T19:59:08.245Z,9.43
2023-01-28T20:01:36.147Z,8.75
2023-01-28T20:04:04.932Z,9.48
2023-01-28T20:06:38.079Z,8.27
2023-01-28T20:09:16.460Z,8.77
2023-01-28T20:11:43.515Z,7.13
2023-01-28T20:14:10.515Z,8.35
2023-01-28T20:16:37.473Z,8.50
2023-01-28T20:19:06.519Z,5.65
2023-01-28T20:21:35.657Z,8.30
2023-01-28T20:24:03.424Z,4.75
2023-01-28T20:26:33.344Z,6.35
2023-01-28T20:29:02.657Z,7.47
2023-01-28T20:31:29.807Z,5.93
2023-01-28T20:33:56.716Z,9.20
2023-01-28T20:36:23.566Z,10.75
2023-01-28T20:38:50.760Z,7.75
2023-01-28T20:41:23.457Z,9.40
2023-01-28T20:43:52.987Z,5.90
2023-01-28T20:46:22.461Z,6.03
2023-01-28T20:48:50.144Z,9.18
2023-01-28T20:51:26.423Z,4.47
2023-01-28T20:53:57.136Z,6.15
2023-01-28T20:56:26.140Z,9.15
2023-01-28T20:58:59.372Z,3.92
2023-01-28T21:01:30.974Z,12.20
2023-01-28T21:03:57.801Z,5.53
2023-01-28T21:06:33.885Z,4.57
2023-01-28T21:09:00.596Z,5.53
2023-01-28T21:11:27.582Z,8.35
2023-01-28T21:13:54.630Z,5.60
2023-01-28T21:16:22.301Z,9.32
2023-01-28T21:18:51.870Z,4.90
2023-01-28T21:21:22.677Z,14.65
2023-01-28T21:23:50.414Z,6.63
2023-01-28T21:26:18.311Z,7.80
2023-01-28T21:28:49.200Z,5.10
2023-01-28T21:31:18.719Z,6.45
2023-01-28T21:33:53.484Z,18.02
2023-01-28T21:36:20.977Z,7.63
2023-01-28T21:39:00.992Z,6.13
2023-01-28T21:41:28.031Z,7.22
2023-01-28T21:43:56.098Z,6.80
2023-01-28T21:46:28.516Z,5.20
2023-01-28T21:49:00.937Z,9.85
2023-01-28T21:51:40.913Z,7.22
2023-01-28T21:54:11.974Z,5.68
2023-01-28T21:56:39.154Z,5.88
2023-01-28T21:59:24.634Z,5.93
2023-01-28T22:01:51.358Z,5.07
2023-01-28T22:04:18.277Z,3.67
2023-01-28T22:06:45.486Z,6.40
2023-01-28T22:09:14.140Z,4.50
2023-01-28T22:11:42.590Z,6.10
2023-01-28T22:14:10.473Z,3.58
2023-01-28T22:16:37.455Z,7.15
2023-01-28T22:19:04.831Z,3.97
2023-01-28T22:21:32.952Z,23.13
2023-01-28T22:23:59.706Z,14.02
2023-01-28T22:26:26.501Z,4.93
2023-01-28T22:28:54.024Z,5.72
2023-01-28T22:31:20.924Z,4.88
2023-01-28T22:33:48.173Z,4.50
2023-01-28T22:36:16.138Z,9.00
2023-01-28T22:38:44.740Z,4.57
2023-01-28T22:41:19.909Z,5.28
2023-01-28T22:43:47.203Z,8.25
2023-01-28T22:46:16.361Z,5.25
2023-01-28T22:48:44.760Z,4.78
2023-01-28T22:51:20.057Z,5.47
2023-01-28T22:53:47.784Z,7.50
2023-01-28T22:56:15.877Z,7.40
2023-01-28T22:58:42.705Z,4.60
2023-01-28T23:01:09.336Z,4.82
2023-01-28T23:03:40.271Z,4.43
2023-01-28T23:06:08.270Z,7.68
2023-01-28T23:08:34.758Z,6.28
2023-01-28T23:11:03.055Z,9.13
2023-01-28T23:13:49.974Z,5.05
2023-01-28T23:16:35.472Z,7.43
2023-01-28T23:19:20.665Z,5.75
2023-01-28T23:22:06.239Z,6.10
2023-01-28T23:24:33.423Z,7.03
2023-01-28T23:27:03.042Z,7.57
2023-01-28T23:29:31.858Z,8.20
2023-01-28T23:32:05.660Z,7.15
2023-01-28T23:34:38.422Z,5.43
2023-01-28T23:37:07.479Z,7.50
2023-01-28T23:39:34.614Z,8.55
2023-01-28T23:42:20.730Z,9.45
2023-01-28T23:44:47.889Z,4.78
2023-01-28T23:47:14.974Z,9.13
2023-01-28T23:49:41.590Z,7.68
2023-01-28T23:52:08.472Z,7.13
2023-01-28T23:54:35.460Z,7.13
2023-01-28T23:57:02.711Z,5.65
2023-01-28T23:59:29.147Z,8.65
